sensor_id;sensor_type;location;lat;lon;timestamp;temperature;humidity
2893;DHT22;1456;51.840;12.184;2023-12-14T00:01:44;7.40;99.90
2893;DHT22;1456;51.840;12.184;2023-12-14T00:04:11;7.40;99.90
2893;DHT22;1456;51.840;12.184;2023-12-14T00:06:37;7.30;99.90
2893;DHT22;1456;51.840;12.184;2023-12-14T00:09:03;7.30;99.90
2893;DHT22;1456;51.840;12.184;2023-12-14T00:11:29;7.30;99.90
2893;DHT22;1456;51.840;12.184;2023-12-14T00:13:55;7.40;99.90
2893;DHT22;1456;51.840;12.184;2023-12-14T00:16:21;7.40;99.90
2893;DHT22;1456;51.840;12.184;2023-12-14T00:18:46;7.30;99.90
2893;DHT22;1456;51.840;12.184;2023-12-14T00:21:12;7.20;99.90
2893;DHT22;1456;51.840;12.184;2023-12-14T00:23:38;7.10;99.90
2893;DHT22;1456;51.840;12.184;2023-12-14T00:26:03;7.10;99.90
2893;DHT22;1456;51.840;12.184;2023-12-14T00:28:29;7.10;99.90
2893;DHT22;1456;51.840;12.184;2023-12-14T00:30:55;7.00;99.90
2893;DHT22;1456;51.840;12.184;2023-12-14T00:33:20;7.00;99.90
2893;DHT22;1456;51.840;12.184;2023-12-14T00:35:46;7.00;99.90
2893;DHT22;1456;51.840;12.184;2023-12-14T00:38:11;6.90;99.90
2893;DHT22;1456;51.840;12.184;2023-12-14T00:40:37;6.80;99.90
2893;DHT22;1456;51.840;12.184;2023-12-14T00:43:03;6.70;99.90
2893;DHT22;1456;51.840;12.184;2023-12-14T00:45:28;6.70;99.90
2893;DHT22;1456;51.840;12.184;2023-12-14T00:47:54;6.50;99.90
2893;DHT22;1456;51.840;12.184;2023-12-14T00:50:20;6.50;99.90
2893;DHT22;1456;51.840;12.184;2023-12-14T00:52:45;6.50;99.90
2893;DHT22;1456;51.840;12.184;2023-12-14T00:55:11;6.50;99.90
2893;DHT22;1456;51.840;12.184;2023-12-14T00:57:36;6.50;99.90
2893;DHT22;1456;51.840;12.184;2023-12-14T01:00:02;6.40;99.90
2893;DHT22;1456;51.840;12.184;2023-12-14T01:02:29;6.40;99.90
2893;DHT22;1456;51.840;12.184;2023-12-14T01:04:54;6.40;99.90
2893;DHT22;1456;51.840;12.184;2023-12-14T01:07:20;6.40;99.90
2893;DHT22;1456;51.840;12.184;2023-12-14T01:09:46;6.40;99.90
2893;DHT22;1456;51.840;12.184;2023-12-14T01:12:11;6.30;99.90
2893;DHT22;1456;51.840;12.184;2023-12-14T01:14:37;6.30;99.90
2893;DHT22;1456;51.840;12.184;2023-12-14T01:17:03;6.30;99.90
2893;DHT22;1456;51.840;12.184;2023-12-14T01:19:28;6.30;99.90
2893;DHT22;1456;51.840;12.184;2023-12-14T01:21:54;6.30;99.90
2893;DHT22;1456;51.840;12.184;2023-12-14T01:24:20;6.30;99.90
2893;DHT22;1456;51.840;12.184;2023-12-14T01:26:46;6.30;99.90
2893;DHT22;1456;51.840;12.184;2023-12-14T01:29:12;6.30;99.90
2893;DHT22;1456;51.840;12.184;2023-12-14T01:31:37;6.30;99.90
2893;DHT22;1456;51.840;12.184;2023-12-14T01:34:03;6.20;99.90
2893;DHT22;1456;51.840;12.184;2023-12-14T01:36:29;6.20;99.90
2893;DHT22;1456;51.840;12.184;2023-12-14T01:38:54;6.30;99.90
2893;DHT22;1456;51.840;12.184;2023-12-14T01:41:20;6.30;99.90
2893;DHT22;1456;51.840;12.184;2023-12-14T01:43:45;6.30;99.90
2893;DHT22;1456;51.840;12.184;2023-12-14T01:46:11;6.30;99.90
2893;DHT22;1456;51.840;12.184;2023-12-14T01:48:38;6.20;99.90
2893;DHT22;1456;51.840;12.184;2023-12-14T01:51:04;6.20;99.90
2893;DHT22;1456;51.840;12.184;2023-12-14T01:53:30;6.10;99.90
2893;DHT22;1456;51.840;12.184;2023-12-14T01:55:56;6.20;99.90
2893;DHT22;1456;51.840;12.184;2023-12-14T01:58:22;6.10;99.90
2893;DHT22;1456;51.840;12.184;2023-12-14T02:01:16;6.10;99.90
2893;DHT22;1456;51.840;12.184;2023-12-14T02:03:48;6.10;99.90
2893;DHT22;1456;51.840;12.184;2023-12-14T02:06:15;6.10;99.90
2893;DHT22;1456;51.840;12.184;2023-12-14T02:08:41;6.10;99.90
2893;DHT22;1456;51.840;12.184;2023-12-14T02:11:07;6.10;99.90
2893;DHT22;1456;51.840;12.184;2023-12-14T02:13:33;6.00;99.90
2893;DHT22;1456;51.840;12.184;2023-12-14T02:15:59;6.00;99.90
2893;DHT22;1456;51.840;12.184;2023-12-14T02:18:24;6.00;99.90
2893;DHT22;1456;51.840;12.184;2023-12-14T02:20:50;5.90;99.90
2893;DHT22;1456;51.840;12.184;2023-12-14T02:23:15;5.90;99.90
2893;DHT22;1456;51.840;12.184;2023-12-14T02:25:41;5.90;99.90
2893;DHT22;1456;51.840;12.184;2023-12-14T02:28:07;5.90;99.90
2893;DHT22;1456;51.840;12.184;2023-12-14T02:30:33;5.80;99.90
2893;DHT22;1456;51.840;12.184;2023-12-14T02:32:59;5.70;99.90
2893;DHT22;1456;51.840;12.184;2023-12-14T02:35:25;5.70;99.90
2893;DHT22;1456;51.840;12.184;2023-12-14T02:37:51;5.70;99.90
2893;DHT22;1456;51.840;12.184;2023-12-14T02:40:16;5.80;99.90
2893;DHT22;1456;51.840;12.184;2023-12-14T02:42:42;5.80;99.90
2893;DHT22;1456;51.840;12.184;2023-12-14T02:45:08;5.80;99.90
2893;DHT22;1456;51.840;12.184;2023-12-14T02:47:34;5.80;99.90
2893;DHT22;1456;51.840;12.184;2023-12-14T02:50:00;5.80;99.90
2893;DHT22;1456;51.840;12.184;2023-12-14T02:52:25;5.70;99.90
2893;DHT22;1456;51.840;12.184;2023-12-14T02:54:51;5.60;99.90
2893;DHT22;1456;51.840;12.184;2023-12-14T02:57:17;5.60;99.90
2893;DHT22;1456;51.840;12.184;2023-12-14T02:59:42;5.60;99.90
2893;DHT22;1456;51.840;12.184;2023-12-14T03:02:08;5.60;99.90
2893;DHT22;1456;51.840;12.184;2023-12-14T03:04:34;5.70;99.90
2893;DHT22;1456;51.840;12.184;2023-12-14T03:07:02;5.60;99.90
2893;DHT22;1456;51.840;12.184;2023-12-14T03:09:28;5.60;99.90
2893;DHT22;1456;51.840;12.184;2023-12-14T03:11:54;5.60;99.90
2893;DHT22;1456;51.840;12.184;2023-12-14T03:14:20;5.70;99.90
2893;DHT22;1456;51.840;12.184;2023-12-14T03:16:46;5.70;99.90
2893;DHT22;1456;51.840;12.184;2023-12-14T03:19:13;5.70;99.90
2893;DHT22;1456;51.840;12.184;2023-12-14T03:21:39;5.70;99.90
2893;DHT22;1456;51.840;12.184;2023-12-14T03:24:04;5.70;99.90
2893;DHT22;1456;51.840;12.184;2023-12-14T03:26:30;5.70;99.90
2893;DHT22;1456;51.840;12.184;2023-12-14T03:28:56;5.60;99.90
2893;DHT22;1456;51.840;12.184;2023-12-14T03:31:21;5.50;99.90
2893;DHT22;1456;51.840;12.184;2023-12-14T03:33:47;5.50;99.90
2893;DHT22;1456;51.840;12.184;2023-12-14T03:36:13;5.50;99.90
2893;DHT22;1456;51.840;12.184;2023-12-14T03:38:38;5.50;99.90
2893;DHT22;1456;51.840;12.184;2023-12-14T03:41:04;5.40;99.90
2893;DHT22;1456;51.840;12.184;2023-12-14T03:43:30;5.40;99.90
2893;DHT22;1456;51.840;12.184;2023-12-14T03:45:55;5.30;99.90
2893;DHT22;1456;51.840;12.184;2023-12-14T03:48:21;5.30;99.90
2893;DHT22;1456;51.840;12.184;2023-12-14T03:50:47;5.20;99.90
2893;DHT22;1456;51.840;12.184;2023-12-14T03:53:12;5.10;99.90
2893;DHT22;1456;51.840;12.184;2023-12-14T03:55:38;5.00;99.90
2893;DHT22;1456;51.840;12.184;2023-12-14T03:58:03;5.00;99.90
2893;DHT22;1456;51.840;12.184;2023-12-14T04:00:29;5.00;99.90
2893;DHT22;1456;51.840;12.184;2023-12-14T04:02:55;4.90;99.90
2893;DHT22;1456;51.840;12.184;2023-12-14T04:05:20;5.00;99.90
2893;DHT22;1456;51.840;12.184;2023-12-14T04:07:46;4.90;99.90
2893;DHT22;1456;51.840;12.184;2023-12-14T04:10:13;4.90;99.90
2893;DHT22;1456;51.840;12.184;2023-12-14T04:12:39;4.90;99.90
2893;DHT22;1456;51.840;12.184;2023-12-14T04:15:07;4.90;99.90
2893;DHT22;1456;51.840;12.184;2023-12-14T04:17:33;4.90;99.90
2893;DHT22;1456;51.840;12.184;2023-12-14T04:19:59;4.90;99.90
2893;DHT22;1456;51.840;12.184;2023-12-14T04:22:26;4.90;99.90
2893;DHT22;1456;51.840;12.184;2023-12-14T04:24:51;4.90;99.90
2893;DHT22;1456;51.840;12.184;2023-12-14T04:27:17;4.90;99.90
2893;DHT22;1456;51.840;12.184;2023-12-14T04:29:43;4.90;99.90
2893;DHT22;1456;51.840;12.184;2023-12-14T04:32:09;4.90;99.90
2893;DHT22;1456;51.840;12.184;2023-12-14T04:34:35;4.90;99.90
2893;DHT22;1456;51.840;12.184;2023-12-14T04:37:01;4.80;99.90
2893;DHT22;1456;51.840;12.184;2023-12-14T04:39:27;4.80;99.90
2893;DHT22;1456;51.840;12.184;2023-12-14T04:41:53;4.80;99.90
2893;DHT22;1456;51.840;12.184;2023-12-14T04:44:19;4.80;99.90
2893;DHT22;1456;51.840;12.184;2023-12-14T04:46:49;4.80;99.90
2893;DHT22;1456;51.840;12.184;2023-12-14T04:49:16;4.80;99.90
2893;DHT22;1456;51.840;12.184;2023-12-14T04:51:42;4.70;99.90
2893;DHT22;1456;51.840;12.184;2023-12-14T04:54:08;4.70;99.90
2893;DHT22;1456;51.840;12.184;2023-12-14T04:56:34;4.80;99.90
2893;DHT22;1456;51.840;12.184;2023-12-14T04:59:00;4.70;99.90
2893;DHT22;1456;51.840;12.184;2023-12-14T05:01:25;4.70;99.90
2893;DHT22;1456;51.840;12.184;2023-12-14T05:03:54;4.70;99.90
2893;DHT22;1456;51.840;12.184;2023-12-14T05:06:20;4.60;99.90
2893;DHT22;1456;51.840;12.184;2023-12-14T05:08:46;4.70;99.90
2893;DHT22;1456;51.840;12.184;2023-12-14T05:11:12;4.70;99.90
2893;DHT22;1456;51.840;12.184;2023-12-14T05:13:38;4.70;99.90
2893;DHT22;1456;51.840;12.184;2023-12-14T05:16:04;4.70;99.90
2893;DHT22;1456;51.840;12.184;2023-12-14T05:18:29;4.70;99.90
2893;DHT22;1456;51.840;12.184;2023-12-14T05:20:55;4.60;99.90
2893;DHT22;1456;51.840;12.184;2023-12-14T05:23:21;4.50;99.90
2893;DHT22;1456;51.840;12.184;2023-12-14T05:25:47;4.50;99.90
2893;DHT22;1456;51.840;12.184;2023-12-14T05:28:13;4.50;99.90
2893;DHT22;1456;51.840;12.184;2023-12-14T05:30:38;4.50;99.90
2893;DHT22;1456;51.840;12.184;2023-12-14T05:33:04;4.50;99.90
2893;DHT22;1456;51.840;12.184;2023-12-14T05:35:30;4.50;99.90
2893;DHT22;1456;51.840;12.184;2023-12-14T05:37:56;4.50;99.90
2893;DHT22;1456;51.840;12.184;2023-12-14T05:40:21;4.40;99.90
2893;DHT22;1456;51.840;12.184;2023-12-14T05:42:47;4.40;99.90
2893;DHT22;1456;51.840;12.184;2023-12-14T05:45:13;4.50;99.90
2893;DHT22;1456;51.840;12.184;2023-12-14T05:47:38;4.50;99.90
2893;DHT22;1456;51.840;12.184;2023-12-14T05:50:05;4.40;99.90
2893;DHT22;1456;51.840;12.184;2023-12-14T05:52:31;4.40;99.90
2893;DHT22;1456;51.840;12.184;2023-12-14T05:54:56;4.40;99.90
2893;DHT22;1456;51.840;12.184;2023-12-14T05:57:22;4.30;99.90
2893;DHT22;1456;51.840;12.184;2023-12-14T05:59:50;4.30;99.90
2893;DHT22;1456;51.840;12.184;2023-12-14T06:02:17;4.30;99.90
2893;DHT22;1456;51.840;12.184;2023-12-14T06:04:43;4.30;99.90
2893;DHT22;1456;51.840;12.184;2023-12-14T06:07:09;4.30;99.90
2893;DHT22;1456;51.840;12.184;2023-12-14T06:09:34;4.30;99.90
2893;DHT22;1456;51.840;12.184;2023-12-14T06:12:04;4.30;99.90
2893;DHT22;1456;51.840;12.184;2023-12-14T06:14:30;4.10;99.90
2893;DHT22;1456;51.840;12.184;2023-12-14T06:16:58;4.20;99.90
2893;DHT22;1456;51.840;12.184;2023-12-14T06:19:23;4.20;99.90
2893;DHT22;1456;51.840;12.184;2023-12-14T06:21:49;4.30;99.90
2893;DHT22;1456;51.840;12.184;2023-12-14T06:24:15;4.30;99.90
2893;DHT22;1456;51.840;12.184;2023-12-14T06:26:42;4.30;99.90
2893;DHT22;1456;51.840;12.184;2023-12-14T06:29:11;4.30;99.90
2893;DHT22;1456;51.840;12.184;2023-12-14T06:31:38;4.20;99.90
2893;DHT22;1456;51.840;12.184;2023-12-14T06:34:03;4.30;99.90
2893;DHT22;1456;51.840;12.184;2023-12-14T06:36:33;4.30;99.90
2893;DHT22;1456;51.840;12.184;2023-12-14T06:39:00;4.30;99.90
2893;DHT22;1456;51.840;12.184;2023-12-14T06:41:27;4.30;99.90
2893;DHT22;1456;51.840;12.184;2023-12-14T06:43:54;4.20;99.90
2893;DHT22;1456;51.840;12.184;2023-12-14T06:46:20;4.20;99.90
2893;DHT22;1456;51.840;12.184;2023-12-14T06:48:47;4.20;99.90
2893;DHT22;1456;51.840;12.184;2023-12-14T06:51:13;4.20;99.90
2893;DHT22;1456;51.840;12.184;2023-12-14T06:53:43;4.10;99.90
2893;DHT22;1456;51.840;12.184;2023-12-14T06:56:09;4.00;99.90
2893;DHT22;1456;51.840;12.184;2023-12-14T06:58:37;4.00;99.90
2893;DHT22;1456;51.840;12.184;2023-12-14T07:01:03;4.10;99.90
2893;DHT22;1456;51.840;12.184;2023-12-14T07:03:29;4.00;99.90
2893;DHT22;1456;51.840;12.184;2023-12-14T07:05:54;4.00;99.90
2893;DHT22;1456;51.840;12.184;2023-12-14T07:08:20;4.00;99.90
2893;DHT22;1456;51.840;12.184;2023-12-14T07:10:46;4.10;99.90
2893;DHT22;1456;51.840;12.184;2023-12-14T07:13:11;4.00;99.90
2893;DHT22;1456;51.840;12.184;2023-12-14T07:15:37;4.10;99.90
2893;DHT22;1456;51.840;12.184;2023-12-14T07:18:02;4.10;99.90
2893;DHT22;1456;51.840;12.184;2023-12-14T07:20:28;4.10;99.90
2893;DHT22;1456;51.840;12.184;2023-12-14T07:22:54;4.00;99.90
2893;DHT22;1456;51.840;12.184;2023-12-14T07:25:19;4.00;99.90
2893;DHT22;1456;51.840;12.184;2023-12-14T07:27:45;4.00;99.90
2893;DHT22;1456;51.840;12.184;2023-12-14T07:30:12;4.10;99.90
2893;DHT22;1456;51.840;12.184;2023-12-14T07:32:38;4.10;99.90
2893;DHT22;1456;51.840;12.184;2023-12-14T07:35:04;4.10;99.90
2893;DHT22;1456;51.840;12.184;2023-12-14T07:37:30;4.00;99.90
2893;DHT22;1456;51.840;12.184;2023-12-14T07:39:56;4.00;99.90
2893;DHT22;1456;51.840;12.184;2023-12-14T07:42:22;4.00;99.90
2893;DHT22;1456;51.840;12.184;2023-12-14T07:44:47;4.00;99.90
2893;DHT22;1456;51.840;12.184;2023-12-14T07:47:13;4.00;99.90
2893;DHT22;1456;51.840;12.184;2023-12-14T07:49:39;4.00;99.90
2893;DHT22;1456;51.840;12.184;2023-12-14T07:52:05;4.00;99.90
2893;DHT22;1456;51.840;12.184;2023-12-14T07:54:30;4.00;99.90
2893;DHT22;1456;51.840;12.184;2023-12-14T07:56:57;4.00;99.90
2893;DHT22;1456;51.840;12.184;2023-12-14T07:59:22;3.90;99.90
2893;DHT22;1456;51.840;12.184;2023-12-14T08:01:48;4.00;99.90
2893;DHT22;1456;51.840;12.184;2023-12-14T08:04:14;4.00;99.90
2893;DHT22;1456;51.840;12.184;2023-12-14T08:06:40;3.90;99.90
2893;DHT22;1456;51.840;12.184;2023-12-14T08:09:07;4.00;99.90
2893;DHT22;1456;51.840;12.184;2023-12-14T08:11:33;4.00;99.90
2893;DHT22;1456;51.840;12.184;2023-12-14T08:13:58;4.00;99.90
2893;DHT22;1456;51.840;12.184;2023-12-14T08:16:24;4.10;99.90
2893;DHT22;1456;51.840;12.184;2023-12-14T08:18:50;4.10;99.90
2893;DHT22;1456;51.840;12.184;2023-12-14T08:21:18;4.10;99.90
2893;DHT22;1456;51.840;12.184;2023-12-14T08:23:44;4.10;99.90
2893;DHT22;1456;51.840;12.184;2023-12-14T08:26:10;4.00;99.90
2893;DHT22;1456;51.840;12.184;2023-12-14T08:28:38;4.10;99.90
2893;DHT22;1456;51.840;12.184;2023-12-14T08:31:04;4.10;99.90
2893;DHT22;1456;51.840;12.184;2023-12-14T08:33:30;4.10;99.90
2893;DHT22;1456;51.840;12.184;2023-12-14T08:35:56;4.20;99.90
2893;DHT22;1456;51.840;12.184;2023-12-14T08:38:22;4.20;99.90
2893;DHT22;1456;51.840;12.184;2023-12-14T08:40:49;4.20;99.90
2893;DHT22;1456;51.840;12.184;2023-12-14T08:43:14;4.20;99.90
2893;DHT22;1456;51.840;12.184;2023-12-14T08:45:40;4.20;99.90
2893;DHT22;1456;51.840;12.184;2023-12-14T08:48:06;4.20;99.90
2893;DHT22;1456;51.840;12.184;2023-12-14T08:50:32;4.20;99.90
2893;DHT22;1456;51.840;12.184;2023-12-14T08:52:57;4.30;99.90
2893;DHT22;1456;51.840;12.184;2023-12-14T08:55:26;4.20;99.90
2893;DHT22;1456;51.840;12.184;2023-12-14T08:57:52;4.20;99.90
2893;DHT22;1456;51.840;12.184;2023-12-14T09:00:19;4.20;99.90
2893;DHT22;1456;51.840;12.184;2023-12-14T09:02:45;4.20;99.90
2893;DHT22;1456;51.840;12.184;2023-12-14T09:05:14;4.20;99.90
2893;DHT22;1456;51.840;12.184;2023-12-14T09:07:41;4.20;99.90
2893;DHT22;1456;51.840;12.184;2023-12-14T09:10:07;4.20;99.90
2893;DHT22;1456;51.840;12.184;2023-12-14T09:12:33;4.20;99.90
2893;DHT22;1456;51.840;12.184;2023-12-14T09:15:00;4.10;99.90
2893;DHT22;1456;51.840;12.184;2023-12-14T09:17:26;4.40;99.90
2893;DHT22;1456;51.840;12.184;2023-12-14T09:19:52;4.40;99.90
2893;DHT22;1456;51.840;12.184;2023-12-14T09:22:17;4.30;99.90
2893;DHT22;1456;51.840;12.184;2023-12-14T09:24:43;4.40;99.90
2893;DHT22;1456;51.840;12.184;2023-12-14T09:27:09;4.30;99.90
2893;DHT22;1456;51.840;12.184;2023-12-14T09:29:34;4.30;99.90
2893;DHT22;1456;51.840;12.184;2023-12-14T09:32:00;4.30;99.90
2893;DHT22;1456;51.840;12.184;2023-12-14T09:34:26;4.40;99.90
2893;DHT22;1456;51.840;12.184;2023-12-14T09:36:51;4.40;99.90
2893;DHT22;1456;51.840;12.184;2023-12-14T09:39:17;4.40;99.90
2893;DHT22;1456;51.840;12.184;2023-12-14T09:41:45;4.50;99.90
2893;DHT22;1456;51.840;12.184;2023-12-14T09:44:12;4.50;99.90
2893;DHT22;1456;51.840;12.184;2023-12-14T09:46:38;4.50;99.90
2893;DHT22;1456;51.840;12.184;2023-12-14T09:49:04;4.60;99.90
2893;DHT22;1456;51.840;12.184;2023-12-14T09:51:31;4.80;99.90
2893;DHT22;1456;51.840;12.184;2023-12-14T09:53:56;4.80;99.90
2893;DHT22;1456;51.840;12.184;2023-12-14T09:56:26;4.80;99.90
2893;DHT22;1456;51.840;12.184;2023-12-14T09:58:53;4.90;99.90
2893;DHT22;1456;51.840;12.184;2023-12-14T10:01:22;4.80;99.90
2893;DHT22;1456;51.840;12.184;2023-12-14T10:03:50;4.70;99.90
2893;DHT22;1456;51.840;12.184;2023-12-14T10:06:17;4.70;99.90
2893;DHT22;1456;51.840;12.184;2023-12-14T10:08:54;4.70;99.90
2893;DHT22;1456;51.840;12.184;2023-12-14T10:11:20;4.70;99.90
2893;DHT22;1456;51.840;12.184;2023-12-14T10:13:46;4.60;99.90
2893;DHT22;1456;51.840;12.184;2023-12-14T10:16:12;4.50;99.90
2893;DHT22;1456;51.840;12.184;2023-12-14T10:18:37;4.50;99.90
2893;DHT22;1456;51.840;12.184;2023-12-14T10:21:06;4.40;99.90
2893;DHT22;1456;51.840;12.184;2023-12-14T10:23:33;4.40;99.90
2893;DHT22;1456;51.840;12.184;2023-12-14T10:26:00;4.50;99.90
2893;DHT22;1456;51.840;12.184;2023-12-14T10:28:27;4.60;99.90
2893;DHT22;1456;51.840;12.184;2023-12-14T10:30:52;4.70;99.90
2893;DHT22;1456;51.840;12.184;2023-12-14T10:33:18;4.70;99.90
2893;DHT22;1456;51.840;12.184;2023-12-14T10:35:44;4.70;99.90
2893;DHT22;1456;51.840;12.184;2023-12-14T10:38:12;4.70;99.90
2893;DHT22;1456;51.840;12.184;2023-12-14T10:40:39;4.70;99.90
2893;DHT22;1456;51.840;12.184;2023-12-14T10:43:09;4.80;99.90
2893;DHT22;1456;51.840;12.184;2023-12-14T10:45:36;4.90;99.90
2893;DHT22;1456;51.840;12.184;2023-12-14T10:48:04;4.70;99.90
2893;DHT22;1456;51.840;12.184;2023-12-14T10:50:30;4.70;99.90
2893;DHT22;1456;51.840;12.184;2023-12-14T10:52:57;4.80;99.90
2893;DHT22;1456;51.840;12.184;2023-12-14T10:55:28;4.90;99.90
2893;DHT22;1456;51.840;12.184;2023-12-14T10:57:57;4.80;99.90
2893;DHT22;1456;51.840;12.184;2023-12-14T11:00:23;4.60;99.90
2893;DHT22;1456;51.840;12.184;2023-12-14T11:02:49;4.60;99.90
2893;DHT22;1456;51.840;12.184;2023-12-14T11:05:16;4.70;99.90
2893;DHT22;1456;51.840;12.184;2023-12-14T11:07:47;4.60;99.90
2893;DHT22;1456;51.840;12.184;2023-12-14T11:10:14;4.50;99.90
2893;DHT22;1456;51.840;12.184;2023-12-14T11:13:01;4.40;99.90
2893;DHT22;1456;51.840;12.184;2023-12-14T11:15:33;4.40;99.90
2893;DHT22;1456;51.840;12.184;2023-12-14T11:18:25;4.30;99.90
2893;DHT22;1456;51.840;12.184;2023-12-14T11:26:09;3.90;99.90
2893;DHT22;1456;51.840;12.184;2023-12-14T11:28:37;3.90;99.90
2893;DHT22;1456;51.840;12.184;2023-12-14T11:31:03;3.80;99.90
2893;DHT22;1456;51.840;12.184;2023-12-14T11:33:35;3.80;99.90
2893;DHT22;1456;51.840;12.184;2023-12-14T11:36:02;3.90;99.90
2893;DHT22;1456;51.840;12.184;2023-12-14T11:38:31;3.90;99.90
2893;DHT22;1456;51.840;12.184;2023-12-14T11:40:58;3.90;99.90
2893;DHT22;1456;51.840;12.184;2023-12-14T11:43:24;3.80;99.90
2893;DHT22;1456;51.840;12.184;2023-12-14T11:45:52;3.80;99.90
2893;DHT22;1456;51.840;12.184;2023-12-14T11:48:19;3.80;99.90
2893;DHT22;1456;51.840;12.184;2023-12-14T11:50:46;3.70;99.90
2893;DHT22;1456;51.840;12.184;2023-12-14T11:53:13;3.70;99.90
2893;DHT22;1456;51.840;12.184;2023-12-14T11:55:41;3.70;99.90
2893;DHT22;1456;51.840;12.184;2023-12-14T11:58:08;3.70;99.90
2893;DHT22;1456;51.840;12.184;2023-12-14T12:00:34;3.70;99.90
2893;DHT22;1456;51.840;12.184;2023-12-14T12:03:20;3.60;99.90
2893;DHT22;1456;51.840;12.184;2023-12-14T12:05:51;3.60;99.90
2893;DHT22;1456;51.840;12.184;2023-12-14T12:08:19;3.60;99.90
2893;DHT22;1456;51.840;12.184;2023-12-14T12:10:46;3.70;99.90
2893;DHT22;1456;51.840;12.184;2023-12-14T12:13:14;3.70;99.90
2893;DHT22;1456;51.840;12.184;2023-12-14T12:15:40;3.80;99.90
2893;DHT22;1456;51.840;12.184;2023-12-14T12:18:07;3.80;99.90
2893;DHT22;1456;51.840;12.184;2023-12-14T12:20:33;3.80;99.90
2893;DHT22;1456;51.840;12.184;2023-12-14T12:23:00;3.90;99.90
2893;DHT22;1456;51.840;12.184;2023-12-14T12:25:26;4.00;99.90
2893;DHT22;1456;51.840;12.184;2023-12-14T12:27:53;3.90;99.90
2893;DHT22;1456;51.840;12.184;2023-12-14T12:30:21;3.90;99.90
2893;DHT22;1456;51.840;12.184;2023-12-14T12:32:48;3.90;99.90
2893;DHT22;1456;51.840;12.184;2023-12-14T12:35:15;3.90;99.90
2893;DHT22;1456;51.840;12.184;2023-12-14T12:37:40;3.90;99.90
2893;DHT22;1456;51.840;12.184;2023-12-14T12:40:06;4.00;99.90
2893;DHT22;1456;51.840;12.184;2023-12-14T12:42:33;4.00;99.90
2893;DHT22;1456;51.840;12.184;2023-12-14T12:44:59;3.90;99.90
2893;DHT22;1456;51.840;12.184;2023-12-14T12:47:25;4.00;99.90
2893;DHT22;1456;51.840;12.184;2023-12-14T12:49:50;4.00;99.90
2893;DHT22;1456;51.840;12.184;2023-12-14T12:52:16;4.00;99.90
2893;DHT22;1456;51.840;12.184;2023-12-14T12:54:41;4.10;99.90
2893;DHT22;1456;51.840;12.184;2023-12-14T12:57:07;4.10;99.90
2893;DHT22;1456;51.840;12.184;2023-12-14T12:59:32;4.10;99.90
2893;DHT22;1456;51.840;12.184;2023-12-14T13:01:59;4.00;99.90
2893;DHT22;1456;51.840;12.184;2023-12-14T13:04:24;3.90;99.90
2893;DHT22;1456;51.840;12.184;2023-12-14T13:06:51;3.90;99.90
2893;DHT22;1456;51.840;12.184;2023-12-14T13:09:17;3.80;99.90
2893;DHT22;1456;51.840;12.184;2023-12-14T13:11:45;3.80;99.90
2893;DHT22;1456;51.840;12.184;2023-12-14T13:14:11;3.80;99.90
2893;DHT22;1456;51.840;12.184;2023-12-14T13:16:38;3.80;99.90
2893;DHT22;1456;51.840;12.184;2023-12-14T13:19:04;3.80;99.90
2893;DHT22;1456;51.840;12.184;2023-12-14T13:21:32;3.70;99.90
2893;DHT22;1456;51.840;12.184;2023-12-14T13:23:59;3.60;99.90
2893;DHT22;1456;51.840;12.184;2023-12-14T13:26:25;3.60;99.90
2893;DHT22;1456;51.840;12.184;2023-12-14T13:28:51;3.70;99.90
2893;DHT22;1456;51.840;12.184;2023-12-14T13:31:17;3.70;99.90
2893;DHT22;1456;51.840;12.184;2023-12-14T13:33:44;3.70;99.90
2893;DHT22;1456;51.840;12.184;2023-12-14T13:36:11;3.70;99.90
2893;DHT22;1456;51.840;12.184;2023-12-14T13:38:37;3.70;99.90
2893;DHT22;1456;51.840;12.184;2023-12-14T13:41:03;3.70;99.90
2893;DHT22;1456;51.840;12.184;2023-12-14T13:43:29;3.70;99.90
2893;DHT22;1456;51.840;12.184;2023-12-14T13:45:56;3.80;99.90
2893;DHT22;1456;51.840;12.184;2023-12-14T13:48:25;3.90;99.90
2893;DHT22;1456;51.840;12.184;2023-12-14T13:50:50;4.00;99.90
2893;DHT22;1456;51.840;12.184;2023-12-14T13:53:16;4.00;99.90
2893;DHT22;1456;51.840;12.184;2023-12-14T13:55:42;3.90;99.90
2893;DHT22;1456;51.840;12.184;2023-12-14T13:58:07;3.90;99.90
2893;DHT22;1456;51.840;12.184;2023-12-14T14:00:33;3.90;99.90
2893;DHT22;1456;51.840;12.184;2023-12-14T14:03:00;3.90;99.90
2893;DHT22;1456;51.840;12.184;2023-12-14T14:05:26;3.90;99.90
2893;DHT22;1456;51.840;12.184;2023-12-14T14:07:52;4.00;99.90
2893;DHT22;1456;51.840;12.184;2023-12-14T14:10:19;3.90;99.90
2893;DHT22;1456;51.840;12.184;2023-12-14T14:12:45;3.90;99.90
2893;DHT22;1456;51.840;12.184;2023-12-14T14:15:12;3.90;99.90
2893;DHT22;1456;51.840;12.184;2023-12-14T14:17:38;3.90;99.90
2893;DHT22;1456;51.840;12.184;2023-12-14T14:20:04;3.80;99.90
2893;DHT22;1456;51.840;12.184;2023-12-14T14:22:30;3.90;99.90
2893;DHT22;1456;51.840;12.184;2023-12-14T14:24:56;3.90;99.90
2893;DHT22;1456;51.840;12.184;2023-12-14T14:27:22;3.90;99.90
2893;DHT22;1456;51.840;12.184;2023-12-14T14:29:49;4.00;99.90
2893;DHT22;1456;51.840;12.184;2023-12-14T14:32:15;4.10;99.90
2893;DHT22;1456;51.840;12.184;2023-12-14T14:34:42;4.10;99.90
2893;DHT22;1456;51.840;12.184;2023-12-14T14:37:07;4.10;99.90
2893;DHT22;1456;51.840;12.184;2023-12-14T14:39:33;4.20;99.90
2893;DHT22;1456;51.840;12.184;2023-12-14T14:41:59;4.10;99.90
2893;DHT22;1456;51.840;12.184;2023-12-14T14:44:25;4.10;99.90
2893;DHT22;1456;51.840;12.184;2023-12-14T14:46:51;4.10;99.90
2893;DHT22;1456;51.840;12.184;2023-12-14T14:49:17;4.10;99.90
2893;DHT22;1456;51.840;12.184;2023-12-14T14:51:43;4.10;99.90
2893;DHT22;1456;51.840;12.184;2023-12-14T14:54:09;4.10;99.90
2893;DHT22;1456;51.840;12.184;2023-12-14T14:56:35;4.10;99.90
2893;DHT22;1456;51.840;12.184;2023-12-14T14:59:00;4.00;99.90
2893;DHT22;1456;51.840;12.184;2023-12-14T15:01:26;4.00;99.90
2893;DHT22;1456;51.840;12.184;2023-12-14T15:03:51;4.00;99.90
2893;DHT22;1456;51.840;12.184;2023-12-14T15:06:17;4.00;99.90
2893;DHT22;1456;51.840;12.184;2023-12-14T15:08:43;4.00;99.90
2893;DHT22;1456;51.840;12.184;2023-12-14T15:11:08;4.00;99.90
2893;DHT22;1456;51.840;12.184;2023-12-14T15:13:36;4.00;99.90
2893;DHT22;1456;51.840;12.184;2023-12-14T15:16:02;4.00;99.90
2893;DHT22;1456;51.840;12.184;2023-12-14T15:18:27;4.00;99.90
2893;DHT22;1456;51.840;12.184;2023-12-14T15:20:53;3.90;99.90
2893;DHT22;1456;51.840;12.184;2023-12-14T15:23:19;3.90;99.90
2893;DHT22;1456;51.840;12.184;2023-12-14T15:25:45;4.00;99.90
2893;DHT22;1456;51.840;12.184;2023-12-14T15:28:10;4.00;99.90
2893;DHT22;1456;51.840;12.184;2023-12-14T15:30:36;4.10;99.90
2893;DHT22;1456;51.840;12.184;2023-12-14T15:33:02;4.10;99.90
2893;DHT22;1456;51.840;12.184;2023-12-14T15:35:28;4.10;99.90
2893;DHT22;1456;51.840;12.184;2023-12-14T15:37:54;4.10;99.90
2893;DHT22;1456;51.840;12.184;2023-12-14T15:40:20;4.10;99.90
2893;DHT22;1456;51.840;12.184;2023-12-14T15:42:46;4.20;99.90
2893;DHT22;1456;51.840;12.184;2023-12-14T15:45:16;4.20;99.90
2893;DHT22;1456;51.840;12.184;2023-12-14T15:47:43;4.20;99.90
2893;DHT22;1456;51.840;12.184;2023-12-14T15:50:09;4.20;99.90
2893;DHT22;1456;51.840;12.184;2023-12-14T15:52:34;4.30;99.90
2893;DHT22;1456;51.840;12.184;2023-12-14T15:55:00;4.40;99.90
2893;DHT22;1456;51.840;12.184;2023-12-14T15:57:26;4.50;99.90
2893;DHT22;1456;51.840;12.184;2023-12-14T15:59:51;4.60;99.90
2893;DHT22;1456;51.840;12.184;2023-12-14T16:02:17;4.70;99.90